Time;durP1;ratioP1;P1;durP2;ratioP2;P2;SDS_P1;SDS_P2;PMS_P1;PMS_P2;Temp;Humidity;BMP_temperature;BMP_pressure;BME280_temperature;BME280_humidity;BME280_pressure;Samples;Min_cycle;Max_cycle;Signal;HPM_P1;HPM_P2
2021/12/28 00:01:24;;;;;;;15.35;9.60;;;3.90;99.90;;;;;;5155838;27;20049;-60
2021/12/28 00:03:51;;;;;;;17.73;11.00;;;3.90;99.90;;;;;;5136686;27;20412;-60
2021/12/28 00:06:17;;;;;;;16.23;10.65;;;3.90;99.90;;;;;;5138480;27;20071;-60
2021/12/28 00:08:44;;;;;;;15.48;10.10;;;4.00;99.90;;;;;;5137162;27;20047;-60
2021/12/28 00:11:10;;;;;;;18.60;10.20;;;4.00;99.90;;;;;;5136098;27;20491;-61
2021/12/28 00:13:37;;;;;;;14.48;9.57;;;4.00;99.90;;;;;;5136989;27;20052;-61
2021/12/28 00:18:31;;;;;;;18.15;11.55;;;4.00;99.90;;;;;;5141870;27;20108;-60
2021/12/28 00:21:00;;;;;;;16.33;9.48;;;4.00;99.90;;;;;;5150495;27;20565;-61
2021/12/28 00:23:31;;;;;;;20.02;12.07;;;4.10;99.90;;;;;;5155628;27;20039;-61
2021/12/28 00:25:58;;;;;;;13.10;9.27;;;4.10;99.90;;;;;;5129509;27;20411;-62
2021/12/28 00:28:24;;;;;;;19.65;10.75;;;4.00;99.90;;;;;;5123178;27;20544;-60
2021/12/28 00:30:51;;;;;;;16.77;10.60;;;4.10;99.90;;;;;;5154685;27;20488;-60
2021/12/28 00:33:18;;;;;;;17.83;12.38;;;4.10;99.90;;;;;;5155350;27;20389;-59
2021/12/28 00:35:44;;;;;;;15.55;10.02;;;4.10;99.90;;;;;;5154518;27;20035;-61
2021/12/28 00:38:14;;;;;;;21.00;14.77;;;4.10;99.90;;;;;;5118369;27;20123;-59
2021/12/28 00:40:41;;;;;;;19.23;11.63;;;4.00;99.90;;;;;;5154249;27;20050;-59
2021/12/28 00:43:08;;;;;;;17.45;12.43;;;4.10;99.90;;;;;;5136387;27;20051;-60
2021/12/28 00:45:33;;;;;;;20.23;12.23;;;4.10;99.90;;;;;;5155174;27;20122;-60
2021/12/28 00:47:59;;;;;;;15.68;10.30;;;4.10;99.90;;;;;;5126492;27;20421;-60
2021/12/28 00:50:29;;;;;;;18.33;11.90;;;4.10;99.90;;;;;;5148363;27;20133;-60
2021/12/28 00:52:55;;;;;;;20.77;14.52;;;4.00;99.90;;;;;;5153933;27;20085;-60
2021/12/28 00:55:21;;;;;;;17.70;11.55;;;4.00;99.90;;;;;;5153969;27;20392;-60
2021/12/28 00:57:48;;;;;;;16.73;10.90;;;4.00;99.90;;;;;;5151566;27;20054;-65
2021/12/28 01:00:36;;;;;;;17.20;10.98;;;4.00;99.90;;;;;;5141306;27;20167;-62
2021/12/28 01:03:05;;;;;;;16.20;11.85;;;4.00;99.90;;;;;;5135465;27;20090;-60
2021/12/28 01:05:32;;;;;;;16.73;11.57;;;4.10;99.90;;;;;;5119459;27;20054;-62
2021/12/28 01:07:58;;;;;;;21.27;13.20;;;4.00;99.90;;;;;;5153622;27;20404;-61
2021/12/28 01:10:29;;;;;;;15.45;10.25;;;4.00;99.90;;;;;;5136175;27;20080;-61
2021/12/28 01:12:55;;;;;;;19.25;12.00;;;4.00;99.90;;;;;;5154722;27;20046;-67
2021/12/28 01:15:23;;;;;;;22.00;14.35;;;4.00;99.90;;;;;;5155745;27;20078;-69
2021/12/28 01:17:49;;;;;;;18.52;11.65;;;4.00;99.90;;;;;;5137437;27;20048;-66
2021/12/28 01:20:15;;;;;;;20.55;11.48;;;4.00;99.90;;;;;;5136774;27;20043;-66
2021/12/28 01:22:45;;;;;;;22.50;15.60;;;4.00;99.90;;;;;;5155432;27;20050;-66
2021/12/28 01:25:13;;;;;;;26.05;15.15;;;4.00;99.90;;;;;;5136677;27;20047;-66
2021/12/28 01:27:38;;;;;;;25.00;15.55;;;4.00;99.90;;;;;;5137139;27;20050;-66
2021/12/28 01:30:07;;;;;;;22.70;12.80;;;4.00;99.90;;;;;;5154963;27;20045;-67
2021/12/28 01:32:33;;;;;;;19.52;12.93;;;4.00;99.90;;;;;;5155270;27;20046;-67
2021/12/28 01:34:59;;;;;;;25.67;16.05;;;4.00;99.90;;;;;;5154994;27;20038;-66
2021/12/28 01:37:25;;;;;;;23.15;14.48;;;4.00;99.90;;;;;;5136934;27;20438;-66
2021/12/28 01:39:51;;;;;;;23.55;13.07;;;4.00;99.90;;;;;;5155121;27;20042;-67
2021/12/28 01:42:17;;;;;;;25.35;15.63;;;4.00;99.90;;;;;;5154588;27;20042;-66
2021/12/28 01:44:43;;;;;;;26.13;16.40;;;4.00;99.90;;;;;;5155012;27;20118;-68
2021/12/28 01:47:08;;;;;;;22.65;14.27;;;4.00;99.90;;;;;;5136169;27;20445;-66
2021/12/28 01:49:34;;;;;;;33.92;18.92;;;4.00;99.90;;;;;;5154988;27;20403;-68
2021/12/28 01:52:00;;;;;;;32.47;16.38;;;4.00;99.90;;;;;;5136156;27;20414;-66
2021/12/28 01:54:26;;;;;;;26.15;16.00;;;4.10;99.90;;;;;;5118546;27;20460;-66
2021/12/28 01:56:52;;;;;;;37.45;18.73;;;4.10;99.90;;;;;;5154717;27;20054;-65
2021/12/28 01:59:20;;;;;;;30.25;17.05;;;4.10;99.90;;;;;;5118958;27;20305;-65
2021/12/28 02:01:47;;;;;;;34.92;18.25;;;4.10;99.90;;;;;;5136313;27;20058;-68
2021/12/28 02:04:22;;;;;;;29.52;14.77;;;4.20;99.90;;;;;;5135493;27;20054;-65
2021/12/28 02:06:49;;;;;;;27.65;15.27;;;4.20;99.90;;;;;;5135943;27;20057;-66
2021/12/28 02:09:17;;;;;;;36.33;19.30;;;4.20;99.90;;;;;;5154278;27;20099;-69
2021/12/28 02:11:44;;;;;;;30.77;15.88;;;4.10;99.90;;;;;;5154594;27;20038;-68
2021/12/28 02:14:10;;;;;;;40.83;20.60;;;4.20;99.90;;;;;;5154025;27;20061;-71
2021/12/28 02:16:40;;;;;;;36.30;17.52;;;4.20;99.90;;;;;;5135859;27;20047;-66
2021/12/28 02:19:07;;;;;;;42.50;18.73;;;4.20;99.90;;;;;;5153999;27;20053;-66
2021/12/28 02:21:34;;;;;;;48.72;19.83;;;4.20;99.90;;;;;;5135685;27;20564;-66
2021/12/28 02:24:01;;;;;;;45.65;21.02;;;4.20;99.90;;;;;;5135540;27;20042;-77
2021/12/28 02:26:27;;;;;;;62.00;24.10;;;4.20;99.90;;;;;;5135927;27;20047;-66
2021/12/28 02:28:53;;;;;;;59.03;22.58;;;4.10;99.90;;;;;;5154171;27;20068;-69
2021/12/28 02:31:19;;;;;;;50.42;20.20;;;4.10;99.90;;;;;;5153802;27;20042;-66
2021/12/28 02:33:48;;;;;;;60.47;22.00;;;4.10;99.90;;;;;;5153811;27;20039;-67
2021/12/28 02:36:15;;;;;;;73.97;23.52;;;4.10;99.90;;;;;;5153697;27;20047;-66
2021/12/28 02:38:42;;;;;;;65.95;23.45;;;4.10;99.90;;;;;;5154131;27;20092;-65
2021/12/28 02:41:10;;;;;;;68.72;24.23;;;4.10;99.90;;;;;;5118195;27;20078;-67
2021/12/28 02:43:36;;;;;;;73.75;23.88;;;4.10;99.90;;;;;;5135432;27;20125;-66
2021/12/28 02:46:05;;;;;;;85.43;27.05;;;4.10;99.90;;;;;;5135411;27;20043;-66
2021/12/28 02:48:32;;;;;;;71.78;21.75;;;4.20;99.90;;;;;;5153834;27;20127;-66
2021/12/28 02:51:03;;;;;;;91.85;26.45;;;4.10;99.90;;;;;;5118356;27;20487;-67
2021/12/28 02:53:29;;;;;;;101.05;27.60;;;4.10;99.90;;;;;;5135429;27;20073;-68
2021/12/28 02:55:55;;;;;;;70.70;21.05;;;4.20;99.90;;;;;;5134965;27;20051;-68
2021/12/28 02:58:34;;;;;;;106.70;29.15;;;4.20;99.90;;;;;;5117573;27;20043;-66
2021/12/28 03:01:12;;;;;;;114.97;30.83;;;4.20;99.90;;;;;;5153698;27;20407;-68
2021/12/28 03:03:38;;;;;;;84.43;24.65;;;4.20;99.90;;;;;;5117693;27;20050;-66
2021/12/28 03:06:07;;;;;;;69.10;20.98;;;4.20;99.90;;;;;;5118125;27;20096;-66
2021/12/28 03:08:34;;;;;;;55.30;19.17;;;4.40;99.90;;;;;;5135221;27;20039;-66
2021/12/28 03:11:01;;;;;;;70.28;24.02;;;4.30;99.90;;;;;;5135298;27;20569;-66
2021/12/28 03:13:30;;;;;;;53.97;19.73;;;4.30;99.90;;;;;;5153209;27;20046;-66
2021/12/28 03:15:56;;;;;;;85.47;28.45;;;4.40;99.90;;;;;;5153333;27;20043;-66
2021/12/28 03:18:22;;;;;;;79.65;27.92;;;4.40;99.90;;;;;;5152648;27;20384;-65
2021/12/28 03:20:49;;;;;;;108.72;28.85;;;4.30;99.90;;;;;;5153335;27;20134;-66
2021/12/28 03:23:17;;;;;;;109.28;29.05;;;4.30;99.90;;;;;;5134576;27;20051;-66
2021/12/28 03:25:43;;;;;;;70.60;26.02;;;4.30;99.90;;;;;;5153291;27;20097;-66
2021/12/28 03:28:19;;;;;;;101.05;27.73;;;4.40;99.90;;;;;;5134514;27;20444;-70
2021/12/28 03:30:45;;;;;;;72.10;24.23;;;4.40;99.90;;;;;;5153509;27;20058;-66
2021/12/28 03:33:11;;;;;;;96.55;26.77;;;4.40;99.90;;;;;;5100327;27;20056;-66
2021/12/28 03:35:37;;;;;;;116.72;28.10;;;4.40;99.90;;;;;;5134926;27;20137;-66
2021/12/28 03:38:03;;;;;;;100.90;28.13;;;4.40;99.90;;;;;;5135074;27;20375;-66
2021/12/28 03:40:28;;;;;;;66.40;24.05;;;4.40;99.90;;;;;;5152842;27;20395;-66
2021/12/28 03:42:54;;;;;;;115.45;31.27;;;4.50;99.90;;;;;;5153219;27;20069;-66
2021/12/28 03:45:20;;;;;;;128.85;31.50;;;4.50;99.90;;;;;;5134406;27;20066;-65
2021/12/28 03:47:46;;;;;;;88.25;26.20;;;4.40;99.90;;;;;;5134639;27;20101;-68
2021/12/28 03:50:12;;;;;;;89.82;23.75;;;4.60;99.90;;;;;;5134646;27;20496;-76
2021/12/28 03:52:39;;;;;;;89.00;27.05;;;4.60;99.90;;;;;;5134796;27;20124;-66
2021/12/28 03:55:06;;;;;;;103.78;28.33;;;4.60;99.90;;;;;;5153120;27;20496;-68
2021/12/28 03:57:32;;;;;;;152.52;36.00;;;4.60;99.90;;;;;;5134155;27;20054;-66
2021/12/28 03:59:57;;;;;;;126.63;33.67;;;4.60;99.90;;;;;;5134480;27;20043;-66
2021/12/28 04:02:23;;;;;;;192.32;39.25;;;4.60;99.90;;;;;;5117001;27;20035;-65
2021/12/28 04:04:49;;;;;;;124.22;33.65;;;4.60;99.90;;;;;;5153117;27;20047;-65
2021/12/28 04:07:19;;;;;;;110.50;30.65;;;4.60;99.90;;;;;;5152308;27;20082;-68
2021/12/28 04:09:58;;;;;;;116.15;30.88;;;4.60;99.90;;;;;;5152861;27;20043;-65
2021/12/28 04:12:24;;;;;;;157.63;34.17;;;4.60;99.90;;;;;;5152730;27;20160;-65
2021/12/28 04:14:50;;;;;;;158.40;39.20;;;4.70;99.90;;;;;;5134724;27;20074;-66
2021/12/28 04:17:16;;;;;;;196.90;41.15;;;4.70;99.90;;;;;;5134280;27;20106;-67
2021/12/28 04:19:42;;;;;;;167.15;38.15;;;4.70;99.90;;;;;;5134342;27;20039;-66
2021/12/28 04:22:08;;;;;;;180.63;36.22;;;4.60;99.90;;;;;;5134383;27;20395;-65
2021/12/28 04:24:34;;;;;;;204.30;40.90;;;4.70;99.90;;;;;;5134280;27;20126;-65
2021/12/28 04:27:00;;;;;;;195.88;40.58;;;4.70;99.90;;;;;;5152839;27;20492;-65
2021/12/28 04:29:26;;;;;;;165.57;39.80;;;4.70;99.90;;;;;;5154731;27;20122;-64
2021/12/28 04:31:51;;;;;;;206.90;43.70;;;4.70;99.90;;;;;;5104133;27;20073;-68
2021/12/28 04:34:17;;;;;;;144.63;32.55;;;4.70;99.90;;;;;;5138125;27;20043;-67
2021/12/28 04:36:47;;;;;;;197.77;39.75;;;4.70;99.90;;;;;;5156448;27;20102;-68
2021/12/28 04:39:13;;;;;;;161.02;36.35;;;4.80;99.90;;;;;;5138105;27;20125;-67
2021/12/28 04:41:40;;;;;;;185.77;40.50;;;4.70;99.90;;;;;;5120399;27;20049;-65
2021/12/28 04:44:06;;;;;;;179.70;37.22;;;4.80;99.90;;;;;;5138189;27;20055;-66
2021/12/28 04:46:32;;;;;;;181.60;42.00;;;4.80;99.90;;;;;;5155919;27;20129;-66
2021/12/28 04:48:58;;;;;;;156.07;38.25;;;4.90;99.90;;;;;;5137783;27;20047;-69
2021/12/28 04:51:24;;;;;;;196.15;42.95;;;4.90;99.90;;;;;;5120251;27;20047;-65
2021/12/28 04:53:53;;;;;;;122.32;33.70;;;5.40;99.90;;;;;;5137858;27;20049;-67
2021/12/28 04:56:19;;;;;;;171.75;42.75;;;4.90;99.90;;;;;;5156240;27;20085;-65
2021/12/28 04:58:45;;;;;;;157.48;39.00;;;5.00;99.90;;;;;;5137287;27;20082;-65
2021/12/28 05:01:11;;;;;;;151.02;36.75;;;5.00;99.90;;;;;;5155846;27;20044;-65
2021/12/28 05:03:37;;;;;;;129.85;36.05;;;5.00;99.90;;;;;;5155508;27;20050;-67
2021/12/28 05:06:03;;;;;;;225.50;40.05;;;5.00;99.90;;;;;;5155911;27;20135;-67
2021/12/28 05:08:28;;;;;;;264.58;46.83;;;5.00;99.90;;;;;;5137011;27;20480;-67
2021/12/28 05:10:54;;;;;;;151.23;36.10;;;5.00;99.90;;;;;;5155840;27;20099;-66
2021/12/28 05:13:21;;;;;;;142.43;37.10;;;5.00;99.90;;;;;;5156192;27;20043;-66
2021/12/28 05:15:48;;;;;;;131.85;34.03;;;5.10;99.90;;;;;;5137254;27;20086;-66
2021/12/28 05:18:14;;;;;;;155.50;39.13;;;5.10;99.90;;;;;;5155585;27;20057;-66
2021/12/28 05:20:41;;;;;;;163.90;37.65;;;5.20;99.90;;;;;;5136796;27;20402;-66
2021/12/28 05:23:07;;;;;;;249.77;52.25;;;5.20;99.90;;;;;;5137208;27;20130;-65
2021/12/28 05:25:33;;;;;;;144.45;32.50;;;5.20;99.90;;;;;;5155318;27;20125;-66
2021/12/28 05:28:01;;;;;;;177.55;33.88;;;5.20;99.90;;;;;;5137192;27;20053;-66
2021/12/28 05:30:27;;;;;;;217.43;44.55;;;5.20;99.90;;;;;;5155123;27;20121;-69
2021/12/28 05:32:53;;;;;;;133.18;28.17;;;5.20;99.90;;;;;;5136772;27;20448;-66
2021/12/28 05:35:19;;;;;;;194.00;42.08;;;5.20;99.90;;;;;;5137065;27;20081;-67
2021/12/28 05:37:44;;;;;;;118.35;28.42;;;5.30;99.90;;;;;;5154605;27;20067;-68
2021/12/28 05:40:12;;;;;;;205.18;42.67;;;5.40;99.90;;;;;;5135889;27;20121;-67
2021/12/28 05:42:39;;;;;;;151.25;36.60;;;5.30;99.90;;;;;;5154815;27;20046;-67
2021/12/28 05:45:05;;;;;;;157.43;38.40;;;5.40;99.90;;;;;;5136765;27;20043;-66
2021/12/28 05:47:31;;;;;;;162.52;34.70;;;5.20;99.90;;;;;;5119316;27;20047;-66
2021/12/28 05:49:57;;;;;;;153.82;34.22;;;5.20;99.90;;;;;;5136604;27;20053;-66
2021/12/28 05:52:23;;;;;;;134.82;32.97;;;5.20;99.90;;;;;;5136290;27;20046;-66
2021/12/28 05:54:49;;;;;;;84.68;24.48;;;5.20;99.90;;;;;;5154594;27;20389;-69
2021/12/28 05:57:15;;;;;;;101.40;27.02;;;5.20;99.90;;;;;;5136611;27;20046;-67
2021/12/28 05:59:41;;;;;;;74.95;22.25;;;5.10;99.90;;;;;;5135914;27;20038;-66
2021/12/28 06:02:10;;;;;;;91.10;25.73;;;5.10;99.90;;;;;;5154536;27;20045;-67
2021/12/28 06:04:35;;;;;;;77.32;24.75;;;5.10;99.90;;;;;;5154266;27;20050;-66
2021/12/28 06:07:01;;;;;;;65.93;23.48;;;5.10;99.90;;;;;;5136094;27;20051;-66
2021/12/28 06:09:27;;;;;;;54.13;19.50;;;5.00;99.90;;;;;;5154641;27;20039;-66
2021/12/28 06:11:53;;;;;;;67.15;22.15;;;5.10;99.90;;;;;;5154303;27;20046;-66
2021/12/28 06:14:19;;;;;;;74.25;25.60;;;5.10;99.90;;;;;;5154524;27;20046;-66
2021/12/28 06:16:45;;;;;;;64.60;24.25;;;5.20;99.90;;;;;;5154011;27;20046;-65
2021/12/28 06:19:10;;;;;;;59.80;23.15;;;5.10;99.90;;;;;;5154264;27;20051;-66
2021/12/28 06:21:36;;;;;;;56.42;21.73;;;5.00;99.90;;;;;;5135722;27;20051;-66
2021/12/28 06:24:05;;;;;;;60.42;24.52;;;5.00;99.90;;;;;;5154421;27;20048;-66
2021/12/28 06:26:33;;;;;;;64.05;24.58;;;5.10;99.90;;;;;;5154376;27;20053;-66
2021/12/28 06:29:00;;;;;;;53.88;21.98;;;5.00;99.90;;;;;;5135835;27;20058;-66
2021/12/28 06:31:28;;;;;;;35.00;16.70;;;5.10;99.90;;;;;;5135867;27;20111;-66
2021/12/28 06:33:55;;;;;;;48.53;20.55;;;5.10;99.90;;;;;;5118519;27;20043;-66
2021/12/28 06:36:22;;;;;;;61.90;23.75;;;5.00;99.90;;;;;;5153925;27;20050;-66
2021/12/28 06:38:48;;;;;;;54.92;22.30;;;5.10;99.90;;;;;;5135353;27;20047;-66
2021/12/28 06:41:13;;;;;;;46.58;20.60;;;5.00;99.90;;;;;;5153907;27;20170;-66
2021/12/28 06:43:39;;;;;;;51.05;22.25;;;5.00;99.90;;;;;;5153626;27;20046;-66
2021/12/28 06:46:05;;;;;;;54.97;24.98;;;5.10;99.90;;;;;;5153871;27;20069;-67
2021/12/28 06:48:30;;;;;;;45.72;18.25;;;5.10;99.90;;;;;;5153900;27;20035;-66
2021/12/28 06:50:56;;;;;;;52.17;20.73;;;5.10;99.90;;;;;;5153489;27;20135;-69
2021/12/28 06:53:22;;;;;;;44.42;20.27;;;5.10;99.90;;;;;;5152887;27;20403;-66
2021/12/28 06:55:48;;;;;;;49.85;22.25;;;5.10;99.90;;;;;;5153402;27;20050;-66
2021/12/28 06:58:13;;;;;;;35.42;15.32;;;5.10;99.90;;;;;;5135405;27;20513;-68
2021/12/28 07:00:39;;;;;;;37.38;18.02;;;5.10;99.90;;;;;;5153427;27;20089;-73
2021/12/28 07:03:05;;;;;;;36.13;18.02;;;5.00;99.90;;;;;;5135120;27;20108;-67
2021/12/28 07:05:32;;;;;;;45.28;19.90;;;5.10;99.90;;;;;;5153553;27;20051;-65
2021/12/28 07:07:57;;;;;;;48.15;20.58;;;5.10;99.90;;;;;;5117629;27;20046;-66
2021/12/28 07:10:23;;;;;;;39.35;17.88;;;5.10;99.90;;;;;;5135196;27;20049;-65
2021/12/28 07:12:53;;;;;;;43.20;19.20;;;5.10;99.90;;;;;;5134701;27;20407;-65
2021/12/28 07:15:21;;;;;;;27.73;14.80;;;5.10;99.90;;;;;;5153686;27;20046;-66
2021/12/28 07:17:47;;;;;;;35.85;17.13;;;5.10;99.90;;;;;;5153070;27;20086;-69
2021/12/28 07:20:13;;;;;;;38.53;19.65;;;5.10;99.90;;;;;;5135008;27;20054;-66
2021/12/28 07:22:40;;;;;;;40.95;20.85;;;5.10;99.90;;;;;;5134950;27;20057;-65
2021/12/28 07:25:07;;;;;;;45.65;20.42;;;5.10;99.90;;;;;;5134818;27;20460;-66
2021/12/28 07:27:33;;;;;;;41.70;21.45;;;5.00;99.90;;;;;;5153224;27;20042;-66
2021/12/28 07:29:59;;;;;;;39.42;19.00;;;5.00;99.90;;;;;;5152611;27;20478;-67
2021/12/28 07:32:25;;;;;;;45.63;21.35;;;5.00;99.90;;;;;;5153179;27;20480;-66
2021/12/28 07:34:51;;;;;;;34.45;17.05;;;5.00;99.90;;;;;;5153262;27;20038;-66
2021/12/28 07:37:16;;;;;;;35.25;17.05;;;5.00;99.90;;;;;;5117826;27;20058;-65
2021/12/28 07:39:42;;;;;;;42.50;20.10;;;5.10;99.90;;;;;;5153478;27;20038;-66
2021/12/28 07:42:08;;;;;;;38.88;17.55;;;5.10;99.90;;;;;;5152938;27;20042;-67
2021/12/28 07:44:36;;;;;;;31.65;16.63;;;5.00;99.90;;;;;;5153230;27;20083;-66
2021/12/28 07:47:04;;;;;;;33.47;16.15;;;5.10;99.90;;;;;;5152863;27;20046;-66
2021/12/28 07:49:30;;;;;;;33.80;17.20;;;5.10;99.90;;;;;;5134587;27;20047;-66
2021/12/28 07:51:56;;;;;;;36.22;15.82;;;5.10;99.90;;;;;;5152766;27;20050;-66
2021/12/28 07:54:22;;;;;;;31.88;16.35;;;5.10;99.90;;;;;;5153160;27;20043;-67
2021/12/28 07:56:48;;;;;;;29.52;15.23;;;5.10;99.90;;;;;;5134106;27;20053;-69
2021/12/28 07:59:14;;;;;;;34.22;16.00;;;5.10;99.90;;;;;;5153002;27;20089;-67
2021/12/28 08:01:39;;;;;;;38.55;20.75;;;5.10;99.90;;;;;;5152440;27;20377;-67
2021/12/28 08:04:05;;;;;;;27.88;12.50;;;5.10;99.90;;;;;;5153772;27;20054;-66
2021/12/28 08:06:32;;;;;;;24.38;11.73;;;5.10;99.90;;;;;;5121363;27;20081;-68
2021/12/28 08:08:58;;;;;;;32.65;17.92;;;5.10;99.90;;;;;;5138283;27;20163;-66
2021/12/28 08:11:24;;;;;;;31.40;16.38;;;5.10;99.90;;;;;;5156628;27;20476;-66
2021/12/28 08:13:50;;;;;;;23.60;11.15;;;5.10;99.90;;;;;;5156444;27;20047;-77
2021/12/28 08:16:16;;;;;;;31.20;16.70;;;5.10;99.90;;;;;;5156731;27;20053;-68
2021/12/28 08:18:42;;;;;;;28.48;12.73;;;5.10;99.90;;;;;;5156697;27;20043;-66
2021/12/28 08:21:08;;;;;;;24.70;12.30;;;5.10;99.90;;;;;;5156199;27;20072;-68
2021/12/28 08:23:33;;;;;;;23.05;12.43;;;5.10;99.90;;;;;;5138453;27;20400;-67
2021/12/28 08:25:59;;;;;;;18.67;11.88;;;5.10;99.90;;;;;;5156121;27;20043;-66
2021/12/28 08:28:25;;;;;;;18.30;9.52;;;5.10;99.90;;;;;;5120948;27;20034;-66
2021/12/28 08:30:51;;;;;;;27.15;13.55;;;5.20;99.90;;;;;;5156328;27;20045;-79
2021/12/28 08:33:17;;;;;;;20.88;11.63;;;5.10;99.90;;;;;;5156223;27;20499;-65
2021/12/28 08:35:43;;;;;;;23.35;12.68;;;5.20;99.90;;;;;;5156249;27;20073;-65
2021/12/28 08:38:10;;;;;;;22.65;14.30;;;5.20;99.90;;;;;;5137547;27;20061;-65
2021/12/28 08:40:37;;;;;;;17.92;9.65;;;5.20;99.90;;;;;;5156212;27;20039;-68
2021/12/28 08:43:03;;;;;;;22.85;12.52;;;5.20;99.90;;;;;;5155908;27;20049;-65
2021/12/28 08:45:29;;;;;;;20.38;10.38;;;5.20;99.90;;;;;;5156105;27;20047;-65
2021/12/28 08:47:54;;;;;;;19.63;11.85;;;5.20;99.90;;;;;;5137430;27;20352;-73
2021/12/28 08:50:21;;;;;;;19.08;10.77;;;5.20;99.90;;;;;;5137834;27;20051;-67
2021/12/28 08:52:48;;;;;;;21.90;11.50;;;5.20;99.90;;;;;;5156353;27;20543;-66
2021/12/28 08:55:15;;;;;;;20.17;10.95;;;5.20;99.90;;;;;;5155799;27;20047;-66
2021/12/28 08:57:41;;;;;;;21.23;11.52;;;5.40;99.90;;;;;;5155939;27;20062;-66
2021/12/28 09:00:13;;;;;;;21.20;11.07;;;5.20;99.90;;;;;;5137041;27;20053;-65
2021/12/28 09:02:39;;;;;;;18.00;10.35;;;5.20;99.90;;;;;;5155953;27;20046;-65
2021/12/28 09:05:05;;;;;;;17.52;9.45;;;5.30;99.90;;;;;;5155544;27;20396;-69
2021/12/28 09:07:31;;;;;;;20.85;11.43;;;5.30;99.90;;;;;;5155557;27;20483;-65
2021/12/28 09:09:57;;;;;;;16.42;7.53;;;5.30;99.90;;;;;;5137196;27;20129;-79
2021/12/28 09:12:23;;;;;;;18.60;9.65;;;5.40;99.90;;;;;;5137468;27;20134;-65
2021/12/28 09:14:49;;;;;;;17.15;9.38;;;5.40;99.90;;;;;;5154662;27;20161;-68
2021/12/28 09:17:15;;;;;;;21.67;9.32;;;5.40;99.90;;;;;;5155081;27;20444;-66
2021/12/28 09:19:41;;;;;;;18.10;9.70;;;5.40;99.90;;;;;;5155825;27;20052;-66
2021/12/28 09:22:07;;;;;;;17.88;8.77;;;5.40;99.90;;;;;;5136680;27;20046;-65
2021/12/28 09:24:32;;;;;;;20.13;11.63;;;5.50;99.90;;;;;;5155479;27;20475;-68
2021/12/28 09:26:59;;;;;;;15.73;6.82;;;5.50;99.90;;;;;;5155427;27;20047;-65
2021/12/28 09:29:29;;;;;;;16.38;7.80;;;5.50;99.90;;;;;;5155440;27;20042;-64
2021/12/28 09:31:55;;;;;;;17.02;7.78;;;5.50;99.90;;;;;;5155468;27;20085;-64
2021/12/28 09:34:21;;;;;;;13.82;7.22;;;5.70;99.90;;;;;;5154931;27;20052;-67
2021/12/28 09:36:47;;;;;;;12.40;7.15;;;5.70;99.90;;;;;;5155218;27;20133;-67
2021/12/28 09:39:13;;;;;;;20.00;9.27;;;5.70;99.90;;;;;;5154615;27;20130;-65
2021/12/28 09:41:38;;;;;;;15.73;7.90;;;5.70;99.90;;;;;;5136047;27;20106;-65
2021/12/28 09:44:04;;;;;;;15.88;7.88;;;5.70;99.90;;;;;;5154540;27;20129;-65
2021/12/28 09:46:30;;;;;;;16.88;8.13;;;5.70;99.90;;;;;;5154611;27;20122;-64
2021/12/28 09:48:56;;;;;;;13.98;6.00;;;5.80;99.90;;;;;;5154646;27;20574;-65
2021/12/28 09:51:22;;;;;;;21.20;8.95;;;5.80;99.90;;;;;;5118976;27;20050;-64
2021/12/28 09:53:48;;;;;;;16.77;9.30;;;5.80;99.90;;;;;;5136482;27;20042;-65
2021/12/28 09:56:14;;;;;;;19.35;8.35;;;5.80;99.90;;;;;;5154174;27;20047;-65
2021/12/28 09:58:40;;;;;;;15.02;6.55;;;5.90;99.90;;;;;;5153656;27;20491;-67
2021/12/28 10:01:08;;;;;;;11.43;6.10;;;5.90;99.90;;;;;;5154556;27;20177;-66
2021/12/28 10:03:35;;;;;;;18.77;8.18;;;5.90;99.90;;;;;;5154526;27;20050;-66
2021/12/28 10:06:27;;;;;;;11.63;6.60;;;5.90;99.90;;;;;;5136018;27;20046;-67
2021/12/28 10:09:22;;;;;;;16.05;8.18;;;5.90;99.90;;;;;;5154256;27;20039;-66
2021/12/28 10:11:54;;;;;;;17.88;8.00;;;6.00;99.90;;;;;;5131532;27;20050;-66
2021/12/28 10:14:26;;;;;;;13.65;6.85;;;5.90;99.90;;;;;;5135588;27;20142;-66
2021/12/28 10:16:56;;;;;;;20.13;8.07;;;5.90;99.90;;;;;;5154321;27;20051;-69
2021/12/28 10:19:41;;;;;;;17.05;6.30;;;5.90;99.90;;;;;;5135450;27;20039;-66
2021/12/28 10:22:26;;;;;;;14.90;6.85;;;6.00;99.90;;;;;;5135824;27;20051;-65
2021/12/28 10:24:55;;;;;;;10.57;5.97;;;6.00;99.90;;;;;;5136007;27;20061;-67
2021/12/28 10:27:24;;;;;;;12.23;6.75;;;6.00;99.90;;;;;;5153771;27;20493;-66
2021/12/28 10:29:51;;;;;;;13.07;6.32;;;6.10;99.90;;;;;;5135664;27;20050;-65
2021/12/28 10:32:28;;;;;;;9.63;5.90;;;6.10;99.90;;;;;;5135209;27;20376;-65
2021/12/28 10:34:59;;;;;;;19.90;7.07;;;6.10;99.90;;;;;;5135737;27;20051;-64
2021/12/28 10:37:30;;;;;;;14.68;6.20;;;6.20;99.90;;;;;;5134993;27;20131;-65
2021/12/28 10:39:58;;;;;;;13.43;6.10;;;6.20;99.90;;;;;;5134927;27;20046;-65
2021/12/28 10:42:50;;;;;;;15.65;7.03;;;6.20;99.90;;;;;;5135373;27;20490;-65
2021/12/28 10:45:26;;;;;;;17.70;6.75;;;6.30;99.90;;;;;;5134980;27;20054;-65
2021/12/28 10:47:53;;;;;;;14.10;5.15;;;6.30;99.90;;;;;;5130363;27;20122;-65
2021/12/28 10:50:35;;;;;;;17.55;6.28;;;6.30;99.90;;;;;;5117772;27;20072;-68
2021/12/28 10:53:11;;;;;;;14.68;5.93;;;6.30;99.90;;;;;;5135408;27;20043;-65
2021/12/28 10:55:39;;;;;;;17.55;5.93;;;6.30;99.90;;;;;;5153583;27;20051;-66
2021/12/28 10:58:05;;;;;;;16.52;5.93;;;6.30;99.90;;;;;;5135411;27;20409;-66
2021/12/28 11:00:34;;;;;;;16.25;5.95;;;6.30;99.90;;;;;;5134564;27;20134;-64
2021/12/28 11:03:17;;;;;;;17.15;6.25;;;6.30;99.90;;;;;;5153310;27;20150;-65
2021/12/28 11:05:48;;;;;;;18.95;7.03;;;6.30;99.90;;;;;;5153547;27;20054;-65
2021/12/28 11:08:15;;;;;;;15.80;5.88;;;6.30;99.90;;;;;;5135175;27;20046;-76
2021/12/28 11:10:47;;;;;;;12.05;4.97;;;6.30;99.90;;;;;;5153552;27;20046;-68
2021/12/28 11:13:14;;;;;;;11.23;4.93;;;6.40;99.90;;;;;;5153674;27;20058;-71
2021/12/28 11:15:44;;;;;;;19.88;8.07;;;6.40;99.90;;;;;;5135169;27;20054;-69
2021/12/28 11:18:33;;;;;;;20.38;7.95;;;6.30;99.90;;;;;;5117978;27;20200;-66
2021/12/28 11:21:20;;;;;;;15.77;5.72;;;6.30;99.90;;;;;;5117758;27;20042;-66
2021/12/28 11:23:52;;;;;;;15.57;5.97;;;6.40;99.90;;;;;;5118177;27;20047;-66
2021/12/28 11:26:31;;;;;;;18.85;6.55;;;6.40;99.90;;;;;;5153165;27;20043;-67
2021/12/28 11:29:13;;;;;;;15.35;6.40;;;6.40;99.90;;;;;;5153324;27;20059;-66
2021/12/28 11:31:39;;;;;;;14.15;6.85;;;6.40;99.90;;;;;;5152502;27;20047;-68
2021/12/28 11:34:11;;;;;;;16.92;6.95;;;6.40;99.90;;;;;;5153244;27;20114;-67
2021/12/28 11:36:44;;;;;;;10.98;5.65;;;6.40;99.90;;;;;;5152883;27;20093;-66
2021/12/28 11:39:14;;;;;;;8.77;4.32;;;6.40;99.90;;;;;;5137020;27;20373;-67
2021/12/28 11:41:41;;;;;;;15.85;6.75;;;6.50;99.90;;;;;;5138725;27;20115;-65
2021/12/28 11:44:07;;;;;;;14.45;6.60;;;6.50;99.90;;;;;;5139150;27;20061;-69
2021/12/28 11:46:34;;;;;;;14.40;6.57;;;6.50;99.90;;;;;;5121721;27;20050;-65
2021/12/28 11:49:00;;;;;;;16.77;6.82;;;6.50;99.90;;;;;;5156700;27;20046;-65
2021/12/28 11:51:26;;;;;;;18.73;7.85;;;6.60;99.90;;;;;;5138133;27;20050;-66
2021/12/28 11:53:55;;;;;;;13.63;6.28;;;6.50;99.90;;;;;;5157134;27;20184;-66
2021/12/28 11:56:28;;;;;;;15.98;6.07;;;6.60;99.90;;;;;;5156806;27;20133;-77
2021/12/28 11:59:21;;;;;;;11.98;5.82;;;6.60;99.90;;;;;;5138494;27;20050;-67
2021/12/28 12:01:53;;;;;;;13.50;7.13;;;6.70;99.90;;;;;;5151477;27;20054;-67
2021/12/28 12:04:33;;;;;;;15.82;7.82;;;6.60;99.90;;;;;;5137895;27;20066;-67
2021/12/28 12:07:09;;;;;;;14.65;6.95;;;6.60;99.90;;;;;;5136772;27;20051;-65
2021/12/28 12:09:50;;;;;;;14.30;9.10;;;6.60;99.90;;;;;;5137887;27;20058;-66
2021/12/28 12:12:18;;;;;;;17.13;9.30;;;6.70;99.90;;;;;;5138102;27;20412;-68
2021/12/28 12:15:00;;;;;;;21.27;7.88;;;6.70;99.90;;;;;;5156548;27;20046;-67
2021/12/28 12:17:44;;;;;;;14.05;7.15;;;6.70;99.90;;;;;;5138005;27;20058;-66
2021/12/28 12:20:19;;;;;;;15.15;7.32;;;6.70;99.90;;;;;;5121006;27;20131;-66
2021/12/28 12:22:55;;;;;;;18.10;7.68;;;6.70;99.90;;;;;;5121045;27;20066;-66
2021/12/28 12:25:42;;;;;;;13.25;6.35;;;6.70;99.90;;;;;;5156479;27;20130;-66
2021/12/28 12:28:09;;;;;;;14.43;6.88;;;6.80;99.90;;;;;;5137567;27;20329;-65
2021/12/28 12:30:54;;;;;;;15.30;6.93;;;6.80;99.90;;;;;;5156142;27;20069;-66
2021/12/28 12:33:20;;;;;;;12.68;7.15;;;6.80;99.90;;;;;;5120840;27;20047;-67
2021/12/28 12:35:56;;;;;;;12.18;6.57;;;6.90;99.90;;;;;;5137677;27;20050;-67
2021/12/28 12:38:24;;;;;;;16.85;7.18;;;6.90;99.90;;;;;;5137732;27;20043;-66
2021/12/28 12:41:04;;;;;;;12.88;6.85;;;6.90;99.90;;;;;;5155879;27;20290;-66
2021/12/28 12:43:37;;;;;;;14.23;6.57;;;6.80;99.90;;;;;;5120208;27;20103;-67
2021/12/28 12:46:18;;;;;;;11.57;5.35;;;6.90;99.90;;;;;;5156303;27;20085;-68